Time;durP1;ratioP1;P1;durP2;ratioP2;P2;SDS_P1;SDS_P2;PMS_P1;PMS_P2;Temp;Humidity;BMP_temperature;BMP_pressure;BME280_temperature;BME280_humidity;BME280_pressure;Samples;Min_cycle;Max_cycle;Signal;HPM_P1;HPM_P2
2023/03/23 09:14:35;;;;;;;6.65;1.80;;;;;;;12.86;69.50;96041.66;2081713;28;20639;-57
2023/03/23 09:15:36;;;;;;;3.75;1.80;;;;;;;13.00;69.05;96048.66;2069952;28;20194;-58
2023/03/23 09:16:36;;;;;;;9.90;2.23;;;;;;;13.06;68.65;96041.25;2067534;28;20257;-58
2023/03/23 09:17:44;;;;;;;7.67;1.83;;;;;;;13.07;68.77;96052.56;2070656;28;20197;-57
2023/03/23 09:18:44;;;;;;;4.03;1.98;;;;;;;13.13;68.49;96054.81;2068428;28;20206;-58
2023/03/23 09:19:45;;;;;;;5.20;2.00;;;;;;;13.07;67.44;96040.28;2068400;28;20217;-57
2023/03/23 09:20:48;;;;;;;3.30;1.77;;;;;;;13.22;67.83;96051.56;2069402;28;20202;-58
2023/03/23 09:21:49;;;;;;;8.15;1.70;;;;;;;13.15;67.55;96047.66;2067280;28;20195;-57
2023/03/23 09:22:52;;;;;;;4.07;1.50;;;;;;;13.29;67.54;96062.50;2068074;28;20834;-58
2023/03/23 09:23:56;;;;;;;3.60;1.55;;;;;;;13.50;67.69;96068.16;2067153;28;20694;-58
2023/03/23 09:24:56;;;;;;;4.35;2.17;;;;;;;13.44;67.52;96068.56;2065429;28;20264;-57
2023/03/23 09:25:57;;;;;;;2.80;1.53;;;;;;;13.32;67.49;96064.94;2067035;28;20202;-58
2023/03/23 09:26:58;;;;;;;3.30;1.50;;;;;;;13.34;67.40;96064.84;2068624;28;20564;-58
2023/03/23 09:27:59;;;;;;;3.88;1.92;;;;;;;13.20;67.77;96063.97;2070093;28;20199;-58
2023/03/23 09:28:59;;;;;;;7.33;1.80;;;;;;;13.13;67.85;96060.03;2069654;28;20195;-58
2023/03/23 09:30:00;;;;;;;5.30;2.07;;;;;;;13.06;68.30;96062.22;2069244;28;20312;-58
2023/03/23 09:31:01;;;;;;;4.60;2.30;;;;;;;13.03;68.13;96067.66;2070085;28;20205;-57
2023/03/23 09:32:01;;;;;;;4.10;1.67;;;;;;;13.05;68.41;96063.16;2069167;28;20286;-58
2023/03/23 09:33:03;;;;;;;2.50;1.50;;;;;;;13.10;68.05;96070.72;2069281;28;20198;-58
2023/03/23 09:34:04;;;;;;;4.65;1.45;;;;;;;13.10;68.14;96065.47;2072755;28;20213;-58
2023/03/23 09:35:08;;;;;;;3.10;1.70;;;;;;;13.25;68.23;96074.13;2068778;28;20214;-58
2023/03/23 09:36:12;;;;;;;3.60;1.70;;;;;;;13.35;68.27;96067.34;2067020;28;20199;-58
2023/03/23 09:37:14;;;;;;;3.72;1.73;;;;;;;13.26;68.35;96056.63;2065889;28;20203;-57
2023/03/23 09:38:14;;;;;;;5.03;1.75;;;;;;;13.57;68.97;96073.84;2065693;28;20205;-58
2023/03/23 09:39:18;;;;;;;5.50;1.67;;;;;;;13.82;68.68;96078.31;2067751;28;20201;-58
2023/03/23 09:40:33;;;;;;;3.75;1.73;;;;;;;14.03;67.93;96070.78;2069634;28;20199;-58
2023/03/23 09:41:49;;;;;;;6.18;1.67;;;;;;;14.04;67.51;96064.59;2066133;28;20240;-58
2023/03/23 09:43:27;;;;;;;4.05;1.92;;;;;;;14.40;66.78;96069.19;2052135;28;20208;-58
2023/03/23 09:44:42;;;;;;;4.07;1.60;;;;;;;14.46;67.24;96080.16;2061801;28;20286;-58
2023/03/23 09:45:57;;;;;;;3.70;1.70;;;;;;;14.26;67.19;96078.03;2067822;28;20199;-58
2023/03/23 09:47:31;;;;;;;10.25;1.45;;;;;;;14.01;68.37;96077.91;2068779;28;20245;-58
2023/03/23 09:49:04;;;;;;;4.88;1.55;;;;;;;13.83;69.08;96080.00;2066794;28;20195;-58
2023/03/23 09:50:18;;;;;;;2.40;1.05;;;;;;;13.55;70.03;96081.81;2063887;28;20241;-58
2023/03/23 09:51:51;;;;;;;4.68;1.48;;;;;;;13.55;70.35;96086.25;2066215;28;20206;-58
2023/03/23 09:53:10;;;;;;;2.45;1.45;;;;;;;13.49;70.66;96089.25;2067776;28;20285;-58
2023/03/23 09:54:13;;;;;;;2.70;1.17;;;;;;;13.55;70.74;96084.44;2065308;28;20277;-58
2023/03/23 09:55:17;;;;;;;4.93;1.55;;;;;;;13.87;70.14;96091.13;2057932;28;20278;-58
2023/03/23 09:56:17;;;;;;;3.45;1.55;;;;;;;13.91;70.84;96086.53;2061325;28;20202;-58
2023/03/23 09:57:37;;;;;;;2.90;1.80;;;;;;;14.04;71.45;96090.00;2063702;28;20195;-58
2023/03/23 09:58:47;;;;;;;5.25;1.70;;;;;;;14.01;70.31;96080.53;2062729;28;20202;-58
2023/03/23 09:59:57;;;;;;;3.30;1.60;;;;;;;14.08;70.77;96085.38;2070212;28;20233;-58
2023/03/23 10:01:13;;;;;;;4.15;1.80;;;;;;;14.33;69.69;96082.75;2071845;28;20915;-58
2023/03/23 10:02:40;;;;;;;2.60;1.10;;;;;;;14.30;68.52;96084.78;2066370;28;20206;-58
2023/03/23 10:03:44;;;;;;;6.57;2.47;;;;;;;14.27;68.76;96091.06;2064769;28;20198;-58
2023/03/23 10:04:50;;;;;;;3.42;1.73;;;;;;;14.23;68.71;96080.88;2064313;28;20265;-58
2023/03/23 10:05:53;;;;;;;4.60;1.73;;;;;;;14.72;68.00;96079.31;2066458;28;20692;-58
2023/03/23 10:07:00;;;;;;;5.28;1.88;;;;;;;14.98;67.59;96069.56;2069892;28;20713;-58
2023/03/23 10:08:05;;;;;;;3.38;1.60;;;;;;;14.81;67.44;96076.84;2064957;28;20265;-58
2023/03/23 10:09:14;;;;;;;3.85;1.63;;;;;;;15.09;67.69;96074.88;2066716;28;20863;-58
2023/03/23 10:10:14;;;;;;;3.13;1.40;;;;;;;14.82;67.29;96075.09;2068465;28;20586;-58
2023/03/23 10:11:37;;;;;;;3.10;1.40;;;;;;;14.76;67.04;96068.44;2067957;28;20198;-58
2023/03/23 10:13:03;;;;;;;2.58;1.70;;;;;;;15.11;66.50;96073.00;2068777;28;20610;-58
2023/03/23 10:14:17;;;;;;;2.50;1.30;;;;;;;15.25;65.63;96073.78;2066124;28;20372;-59
2023/03/23 10:15:23;;;;;;;4.18;1.30;;;;;;;14.81;65.07;96068.97;2064237;28;20721;-58
2023/03/23 10:16:31;;;;;;;5.82;1.40;;;;;;;15.23;65.52;96081.78;2064388;28;21254;-58
2023/03/23 10:17:40;;;;;;;4.35;1.60;;;;;;;15.48;65.15;96075.56;2069831;28;20699;-58
2023/03/23 10:18:43;;;;;;;3.80;1.48;;;;;;;15.88;63.69;96078.88;2069437;28;20738;-58
2023/03/23 10:19:53;;;;;;;2.05;1.30;;;;;;;16.17;62.83;96058.22;2069718;28;20264;-58
2023/03/23 10:20:59;;;;;;;3.08;1.70;;;;;;;15.99;62.85;96079.72;2069706;28;20183;-58
2023/03/23 10:22:06;;;;;;;1.83;1.20;;;;;;;15.62;63.94;96071.91;2070923;28;20214;-59
2023/03/23 10:23:19;;;;;;;2.58;1.25;;;;;;;15.48;64.28;96082.63;2069330;28;20230;-58
2023/03/23 10:24:25;;;;;;;3.35;1.38;;;;;;;14.94;65.24;96076.81;2067221;28;20191;-58
2023/03/23 10:25:31;;;;;;;10.00;2.28;;;;;;;14.51;66.81;96079.81;2066161;28;20623;-58
2023/03/23 10:26:47;;;;;;;1.90;1.10;;;;;;;14.31;67.38;96087.28;2061672;28;20215;-58
2023/03/23 10:28:00;;;;;;;2.05;1.25;;;;;;;14.37;67.25;96083.38;2059599;28;20207;-58
2023/03/23 10:29:06;;;;;;;2.92;1.20;;;;;;;14.60;67.79;96089.69;2060590;28;20760;-58
2023/03/23 10:30:30;;;;;;;5.57;1.73;;;;;;;15.09;66.33;96088.03;2058346;28;20238;-58
2023/03/23 10:31:41;;;;;;;3.20;1.30;;;;;;;15.36;65.22;96084.34;2064123;28;20223;-58
2023/03/23 10:32:49;;;;;;;4.32;1.30;;;;;;;15.47;64.30;96087.03;2066302;28;20543;-58
2023/03/23 10:33:54;;;;;;;3.65;1.25;;;;;;;15.77;64.15;96087.50;2062822;28;20203;-58
2023/03/23 10:35:04;;;;;;;3.25;1.15;;;;;;;15.91;63.89;96094.41;2065151;28;20772;-58
2023/03/23 10:36:11;;;;;;;3.55;1.45;;;;;;;15.74;63.91;96100.91;2062325;28;20809;-58
2023/03/23 10:37:23;;;;;;;3.10;1.40;;;;;;;15.56;64.84;96093.41;2062082;28;20653;-58
2023/03/23 10:38:28;;;;;;;6.97;1.42;;;;;;;15.25;65.18;96098.28;2061828;28;20351;-58
2023/03/23 10:39:37;;;;;;;3.00;1.45;;;;;;;14.94;65.98;96089.13;2064368;28;20202;-58
2023/03/23 10:40:49;;;;;;;3.90;1.30;;;;;;;14.88;67.04;96089.56;2063154;28;20188;-58
2023/03/23 10:41:49;;;;;;;3.28;1.45;;;;;;;14.88;67.24;96089.56;2058701;28;20195;-57
2023/03/23 10:42:52;;;;;;;3.53;1.40;;;;;;;14.99;66.22;96095.72;2061054;28;20215;-58
2023/03/23 10:43:54;;;;;;;2.13;1.30;;;;;;;14.88;66.39;96095.69;2061492;28;20246;-58
2023/03/23 10:44:56;;;;;;;3.78;2.17;;;;;;;14.99;66.47;96093.09;2060964;28;20227;-58
2023/03/23 10:46:15;;;;;;;1.90;1.15;;;;;;;14.91;66.92;96092.81;2061579;28;20187;-58
2023/03/23 10:47:17;;;;;;;4.43;1.35;;;;;;;14.96;67.38;96088.06;2063957;28;20206;-58
2023/03/23 10:48:24;;;;;;;3.22;1.30;;;;;;;15.05;67.25;96088.38;2063080;28;20285;-59
2023/03/23 10:49:32;;;;;;;3.08;1.75;;;;;;;14.82;66.71;96091.69;2062825;28;20205;-58
2023/03/23 10:50:36;;;;;;;3.25;1.20;;;;;;;14.65;67.60;96090.25;2065084;28;20289;-58
2023/03/23 10:51:41;;;;;;;5.30;1.00;;;;;;;14.70;67.57;96066.25;2064973;28;20200;-57
2023/03/23 10:52:44;;;;;;;3.40;1.20;;;;;;;14.77;66.93;96088.53;2062500;28;20676;-58
2023/03/23 10:53:49;;;;;;;1.90;1.10;;;;;;;14.37;67.50;96086.88;2069892;28;20643;-58
2023/03/23 10:54:55;;;;;;;2.72;1.40;;;;;;;14.19;68.13;96088.97;2066116;28;20274;-58
2023/03/23 10:55:58;;;;;;;4.70;1.30;;;;;;;14.07;68.63;96087.19;2061229;28;20238;-58
2023/03/23 10:56:58;;;;;;;4.28;1.58;;;;;;;13.84;69.29;96083.44;2060761;28;20211;-58
2023/03/23 10:58:09;;;;;;;4.50;1.80;;;;;;;13.75;69.38;96087.56;2065406;28;20195;-58
2023/03/23 10:59:21;;;;;;;3.17;1.42;;;;;;;13.65;69.82;96089.06;2064976;28;20199;-58
2023/03/23 11:00:27;;;;;;;2.42;1.50;;;;;;;13.49;70.78;96082.22;2065279;28;20223;-58
2023/03/23 11:01:33;;;;;;;3.80;1.08;;;;;;;13.48;70.88;96091.03;2064570;28;20641;-58
2023/03/23 11:02:56;;;;;;;5.38;1.30;;;;;;;13.26;71.58;96082.84;2064325;28;20277;-58
2023/03/23 11:03:57;;;;;;;3.33;1.67;;;;;;;13.34;72.03;96083.19;2063924;28;20186;-58
2023/03/23 11:05:13;;;;;;;4.33;1.20;;;;;;;13.37;71.97;96083.03;2061789;28;20230;-58
2023/03/23 11:06:28;;;;;;;4.07;1.30;;;;;;;13.42;72.13;96083.56;2060596;28;20462;-58
2023/03/23 11:07:32;;;;;;;3.97;1.40;;;;;;;13.45;73.14;96086.00;2060497;28;20655;-58
2023/03/23 11:08:36;;;;;;;3.30;1.40;;;;;;;13.60;72.80;96081.53;2059153;28;20773;-58
2023/03/23 11:09:39;;;;;;;2.00;1.17;;;;;;;13.58;72.35;96091.28;2060012;28;20219;-58
2023/03/23 11:10:49;;;;;;;2.90;1.58;;;;;;;13.54;71.29;96085.38;2064515;28;20916;-58
2023/03/23 11:11:52;;;;;;;4.85;1.50;;;;;;;13.35;71.84;96083.09;2060322;28;20266;-58
2023/03/23 11:12:58;;;;;;;2.05;1.20;;;;;;;13.42;72.19;96080.09;2061949;28;20605;-58
2023/03/23 11:14:01;;;;;;;2.10;1.20;;;;;;;13.38;71.59;96077.69;2062662;28;20259;-58
2023/03/23 11:15:22;;;;;;;4.10;1.45;;;;;;;13.40;71.62;96085.44;2062962;28;20968;-58
2023/03/23 11:16:25;;;;;;;8.45;1.55;;;;;;;13.42;71.44;96078.34;2063902;28;20665;-58
2023/03/23 11:17:27;;;;;;;2.88;1.30;;;;;;;13.60;71.36;96078.03;2067978;28;20246;-58
2023/03/23 11:18:37;;;;;;;3.40;1.45;;;;;;;13.53;70.85;96077.63;2062506;28;20199;-58
2023/03/23 11:19:37;;;;;;;2.38;1.45;;;;;;;13.49;70.11;96070.91;2061833;28;20794;-58
2023/03/23 11:20:41;;;;;;;3.17;1.40;;;;;;;13.64;70.82;96076.94;2059264;28;20743;-58
2023/03/23 11:21:52;;;;;;;2.70;1.48;;;;;;;13.78;70.50;96071.59;2069157;28;20206;-58
2023/03/23 11:22:53;;;;;;;5.97;1.77;;;;;;;13.82;70.18;96066.97;2064220;28;20666;-59
2023/03/23 11:23:58;;;;;;;3.27;1.60;;;;;;;13.88;69.69;96083.16;2059648;28;20559;-58
2023/03/23 11:25:05;;;;;;;3.35;1.67;;;;;;;13.93;69.67;96077.59;2062867;28;21233;-58
2023/03/23 11:26:16;;;;;;;3.33;1.80;;;;;;;14.16;69.94;96070.78;2061495;28;20198;-58
2023/03/23 11:27:17;;;;;;;4.78;1.60;;;;;;;14.12;68.94;96071.09;2060401;28;20274;-58
2023/03/23 11:28:17;;;;;;;4.33;1.73;;;;;;;14.37;68.81;96079.00;2062476;28;20203;-58
2023/03/23 11:29:22;;;;;;;4.17;1.63;;;;;;;14.41;68.32;96066.50;2063689;28;20427;-58
2023/03/23 11:30:27;;;;;;;2.22;1.30;;;;;;;14.39;68.23;96076.25;2062877;28;20203;-58
2023/03/23 11:31:35;;;;;;;3.92;1.60;;;;;;;14.21;68.79;96058.19;2060949;28;20250;-58
2023/03/23 11:32:37;;;;;;;3.17;1.50;;;;;;;14.24;68.74;96072.88;2057700;28;20737;-58
2023/03/23 11:33:53;;;;;;;3.15;1.52;;;;;;;14.10;69.40;96073.00;2050182;28;20207;-58
2023/03/23 11:34:59;;;;;;;4.18;2.00;;;;;;;14.16;69.23;96073.41;2059315;28;20223;-58
2023/03/23 11:35:59;;;;;;;3.30;1.55;;;;;;;14.43;69.14;96067.22;2062024;28;20237;-58
2023/03/23 11:37:07;;;;;;;3.80;1.60;;;;;;;14.30;67.89;96069.00;2062178;28;20711;-58
2023/03/23 11:38:17;;;;;;;2.63;1.65;;;;;;;14.30;68.99;96074.28;2062449;28;20206;-57
2023/03/23 11:39:22;;;;;;;5.10;1.50;;;;;;;14.39;68.87;96071.00;2061450;28;20203;-58
2023/03/23 11:40:27;;;;;;;3.63;1.80;;;;;;;14.50;68.52;96064.97;2061505;28;20196;-58
2023/03/23 11:41:32;;;;;;;3.55;1.70;;;;;;;14.67;68.62;96080.44;2060572;28;20207;-58
2023/03/23 11:43:07;;;;;;;3.35;1.77;;;;;;;14.48;67.14;96066.91;2062782;28;20254;-58
2023/03/23 11:44:10;;;;;;;3.30;1.67;;;;;;;14.49;67.51;96074.66;2059008;28;20210;-57
2023/03/23 11:45:22;;;;;;;16.23;6.35;;;;;;;14.60;68.01;96073.94;2062932;28;20750;-58
2023/03/23 11:46:36;;;;;;;9.02;4.38;;;;;;;14.68;67.34;96071.63;2058767;28;20270;-58
2023/03/23 11:47:43;;;;;;;7.75;2.30;;;;;;;14.75;67.57;96066.75;2059350;28;20199;-58
2023/03/23 11:48:57;;;;;;;9.20;2.95;;;;;;;14.81;67.20;96070.75;2063625;28;20693;-58
2023/03/23 11:50:22;;;;;;;6.72;4.13;;;;;;;14.52;67.15;96073.59;2064155;28;20222;-58
2023/03/23 11:51:50;;;;;;;8.50;4.05;;;;;;;14.53;67.10;96081.38;2063315;28;20231;-60
2023/03/23 11:53:01;;;;;;;6.60;4.22;;;;;;;14.55;67.17;96081.28;2059668;28;20231;-60
2023/03/23 11:54:14;;;;;;;3.47;2.15;;;;;;;14.35;66.78;96075.63;2065054;28;20657;-60
2023/03/23 11:55:25;;;;;;;5.50;2.00;;;;;;;14.43;67.37;96074.25;2061730;28;20219;-61
2023/03/23 11:56:32;;;;;;;2.95;1.65;;;;;;;14.57;67.72;96078.56;2061901;28;20238;-62
2023/03/23 11:57:33;;;;;;;4.50;1.60;;;;;;;14.57;67.28;96071.50;2058450;28;20210;-61
2023/03/23 11:58:33;;;;;;;5.50;1.90;;;;;;;14.80;67.57;96074.34;2045457;29;20205;-62
2023/03/23 11:59:36;;;;;;;3.37;1.77;;;;;;;15.01;67.22;96070.19;2047019;28;20465;-61
2023/03/23 12:00:51;;;;;;;2.55;1.33;;;;;;;15.04;66.62;96081.44;2064829;28;20210;-62
2023/03/23 12:01:58;;;;;;;2.90;1.60;;;;;;;14.84;66.86;96076.66;2064446;28;20249;-62
2023/03/23 12:03:17;;;;;;;5.10;1.90;;;;;;;14.74;67.63;96090.53;2064448;28;20182;-62
2023/03/23 12:04:47;;;;;;;6.28;2.13;;;;;;;14.67;66.94;96077.81;2061745;28;20559;-62
2023/03/23 12:05:53;;;;;;;3.47;1.88;;;;;;;14.89;66.86;96083.38;2063095;28;20822;-62
2023/03/23 12:07:28;;;;;;;3.72;2.15;;;;;;;14.85;66.24;96080.09;2061223;28;20192;-62
2023/03/23 12:08:49;;;;;;;5.40;2.63;;;;;;;14.92;66.86;96085.75;2056377;28;20257;-62
2023/03/23 12:10:05;;;;;;;3.22;1.70;;;;;;;14.97;66.92;96081.88;2055213;28;20259;-62
2023/03/23 12:11:31;;;;;;;4.82;2.20;;;;;;;15.03;67.78;96083.19;2058130;28;20195;-62
2023/03/23 12:13:20;;;;;;;3.60;2.08;;;;;;;15.55;67.09;96083.00;2059270;28;20204;-62
2023/03/23 12:14:38;;;;;;;2.85;1.48;;;;;;;15.84;66.47;96080.88;2046727;28;20230;-61
2023/03/23 12:15:56;;;;;;;4.22;1.40;;;;;;;15.70;66.33;96073.97;2053474;28;20206;-62
2023/03/23 12:17:17;;;;;;;3.00;1.52;;;;;;;15.74;65.63;96078.06;2061892;28;20218;-61
2023/03/23 12:18:31;;;;;;;3.08;1.63;;;;;;;15.65;65.20;96076.94;2061869;28;20598;-61
2023/03/23 12:19:34;;;;;;;3.10;1.60;;;;;;;15.44;65.32;96076.75;2060704;28;20202;-62
2023/03/23 12:20:49;;;;;;;4.32;1.90;;;;;;;15.49;66.03;96077.25;2060787;28;20200;-61
2023/03/23 12:21:55;;;;;;;6.30;1.92;;;;;;;16.28;64.16;96075.84;2062889;28;20203;-62
2023/03/23 12:23:04;;;;;;;3.00;1.55;;;;;;;16.01;63.96;96074.38;2062005;28;20192;-61
2023/03/23 12:24:10;;;;;;;2.70;1.55;;;;;;;16.06;64.12;96074.00;2059550;28;20215;-62
2023/03/23 12:25:40;;;;;;;4.25;1.80;;;;;;;16.25;63.96;96068.16;2057993;28;20234;-62
2023/03/23 12:26:52;;;;;;;3.03;1.40;;;;;;;16.19;63.39;96064.22;2052894;28;20235;-62
2023/03/23 12:28:01;;;;;;;8.43;1.70;;;;;;;16.26;62.99;96062.78;2061355;28;20201;-61
2023/03/23 12:29:16;;;;;;;2.38;1.48;;;;;;;16.57;62.80;96063.03;2062362;28;20226;-62
2023/03/23 12:30:48;;;;;;;6.50;2.45;;;;;;;17.02;61.67;96062.19;2065413;28;20627;-62
2023/03/23 12:32:09;;;;;;;3.97;1.70;;;;;;;16.68;61.97;96054.28;2061271;28;20714;-62
2023/03/23 12:33:17;;;;;;;3.40;1.65;;;;;;;16.52;62.44;96051.16;2062573;28;20211;-61
2023/03/23 12:34:32;;;;;;;4.25;1.60;;;;;;;16.72;62.15;96047.84;2060613;28;20210;-62
2023/03/23 12:35:48;;;;;;;6.55;1.92;;;;;;;17.11;60.18;96050.88;2064398;28;20754;-61
2023/03/23 12:37:20;;;;;;;5.60;1.83;;;;;;;16.80;60.37;96052.50;2062747;28;20195;-61
2023/03/23 12:38:42;;;;;;;3.42;1.42;;;;;;;16.26;61.33;96046.97;2060299;28;20537;-62
2023/03/23 12:39:48;;;;;;;3.78;2.00;;;;;;;16.16;61.55;96043.38;2059024;28;20223;-61
2023/03/23 12:41:07;;;;;;;4.13;2.00;;;;;;;16.06;62.03;96037.13;2064572;28;20238;-61
2023/03/23 12:42:21;;;;;;;3.67;1.70;;;;;;;16.04;62.13;96034.63;2065461;28;20233;-61
2023/03/23 12:43:35;;;;;;;3.67;1.88;;;;;;;15.95;61.35;96049.31;2063205;28;20195;-61
2023/03/23 12:44:46;;;;;;;3.65;1.70;;;;;;;15.57;61.54;96042.47;2061509;28;20245;-61
2023/03/23 12:46:16;;;;;;;3.70;1.63;;;;;;;15.50;62.47;96043.88;2062431;28;20226;-61
2023/03/23 12:47:36;;;;;;;4.43;1.73;;;;;;;15.45;62.13;96048.63;2059021;28;20834;-61
2023/03/23 12:48:42;;;;;;;6.85;2.10;;;;;;;15.59;61.96;96045.00;2062179;28;20288;-61
2023/03/23 12:50:05;;;;;;;3.35;1.55;;;;;;;15.54;61.88;96047.13;2060812;28;20223;-61
2023/03/23 12:51:24;;;;;;;4.05;1.75;;;;;;;15.35;62.40;96048.50;2058847;28;20211;-61
2023/03/23 12:52:42;;;;;;;12.52;1.95;;;;;;;15.24;62.52;96040.56;2059050;28;20191;-61
2023/03/23 12:53:52;;;;;;;3.42;1.70;;;;;;;15.06;63.24;96048.81;2064114;28;20345;-61
2023/03/23 12:55:07;;;;;;;5.07;2.05;;;;;;;15.06;63.32;96038.31;2063238;28;20227;-61
2023/03/23 12:56:27;;;;;;;4.57;1.73;;;;;;;15.45;62.93;96046.00;2063064;28;20198;-62
2023/03/23 12:57:55;;;;;;;5.63;2.15;;;;;;;15.44;62.33;96033.81;2064250;28;20242;-61
2023/03/23 12:59:19;;;;;;;4.93;1.83;;;;;;;15.77;61.74;96034.88;2059991;28;20697;-62
2023/03/23 13:00:22;;;;;;;6.28;2.10;;;;;;;16.01;61.19;96032.22;2060636;28;20218;-61
2023/03/23 13:01:32;;;;;;;5.50;1.85;;;;;;;15.96;61.26;96037.84;2064421;28;20544;-62
2023/03/23 13:02:44;;;;;;;4.32;1.80;;;;;;;15.89;60.78;96039.25;2062517;28;20186;-61
2023/03/23 13:03:53;;;;;;;3.00;1.58;;;;;;;15.64;60.90;96029.69;2060383;28;20582;-61
2023/03/23 13:05:04;;;;;;;2.70;1.55;;;;;;;15.42;61.46;96030.47;2059533;28;20227;-61
2023/03/23 13:06:13;;;;;;;6.50;1.90;;;;;;;15.29;61.18;96033.16;2062001;28;20183;-61
2023/03/23 13:07:30;;;;;;;2.55;1.50;;;;;;;15.39;61.56;96021.00;2063159;28;20286;-61
2023/03/23 13:08:37;;;;;;;4.60;1.50;;;;;;;15.40;61.22;96027.94;2064132;28;20667;-62
2023/03/23 13:09:40;;;;;;;5.03;1.65;;;;;;;15.28;61.89;96031.47;2061708;28;20369;-62
2023/03/23 13:10:49;;;;;;;5.85;1.60;;;;;;;15.21;62.10;96022.34;2055856;28;20199;-61
2023/03/23 13:11:53;;;;;;;8.25;1.70;;;;;;;15.27;62.53;96020.09;2055789;28;20769;-62
2023/03/23 13:12:54;;;;;;;3.88;1.80;;;;;;;15.23;62.54;96017.84;2056078;28;20211;-62
2023/03/23 13:14:01;;;;;;;3.45;1.75;;;;;;;15.27;62.68;96014.00;2065070;28;20258;-62
2023/03/23 13:15:21;;;;;;;4.20;1.60;;;;;;;15.10;62.49;96013.47;2064263;28;20712;-62
2023/03/23 13:16:44;;;;;;;5.68;1.58;;;;;;;15.19;62.52;96018.03;2061364;28;20199;-62
2023/03/23 13:17:55;;;;;;;6.53;1.75;;;;;;;15.04;62.50;96008.66;2062138;28;20214;-62
2023/03/23 13:19:07;;;;;;;3.95;1.70;;;;;;;15.16;62.05;96017.41;2056482;28;20207;-61
2023/03/23 13:20:18;;;;;;;2.90;1.55;;;;;;;15.14;61.91;96019.34;2062319;28;20276;-62
2023/03/23 13:21:30;;;;;;;2.45;1.50;;;;;;;15.06;62.07;96013.78;2064456;28;20195;-62
2023/03/23 13:22:39;;;;;;;2.53;1.40;;;;;;;15.02;61.71;96000.06;2064352;28;20229;-61
2023/03/23 13:23:46;;;;;;;5.93;1.67;;;;;;;14.89;62.69;96009.75;2063420;28;20204;-61
2023/03/23 13:24:54;;;;;;;3.05;1.70;;;;;;;14.94;62.91;96005.00;2056638;28;20314;-61
2023/03/23 13:26:06;;;;;;;5.65;1.90;;;;;;;15.00;62.78;95999.31;2054268;28;20204;-62
2023/03/23 13:27:11;;;;;;;4.25;1.88;;;;;;;15.09;62.11;95996.00;2055442;28;20227;-61
2023/03/23 13:28:20;;;;;;;4.55;1.90;;;;;;;15.04;62.53;95997.31;2062210;28;20195;-61
2023/03/23 13:29:27;;;;;;;7.88;1.73;;;;;;;14.95;62.08;95989.13;2058181;28;20218;-61
2023/03/23 13:30:29;;;;;;;6.88;1.95;;;;;;;14.95;62.34;95996.19;2049638;28;20255;-61
2023/03/23 13:31:35;;;;;;;3.47;1.83;;;;;;;14.91;61.92;95998.19;2060075;28;20226;-61
2023/03/23 13:32:38;;;;;;;2.70;1.35;;;;;;;14.79;62.24;95999.06;2061618;28;20210;-61
2023/03/23 13:33:57;;;;;;;1.73;1.10;;;;;;;14.78;62.46;95995.59;2060679;28;20195;-61
2023/03/23 13:35:02;;;;;;;4.60;1.90;;;;;;;14.69;62.78;95998.91;2061271;28;20227;-62
2023/03/23 13:36:12;;;;;;;5.55;2.03;;;;;;;14.92;62.98;95988.50;2060161;28;20191;-61
2023/03/23 13:37:15;;;;;;;3.25;1.92;;;;;;;14.95;62.49;95997.00;2062474;28;20198;-60
2023/03/23 13:38:26;;;;;;;3.47;1.65;;;;;;;14.86;62.49;95990.63;2063366;28;20654;-60
2023/03/23 13:39:28;;;;;;;4.10;1.70;;;;;;;14.95;62.99;95991.75;2063297;28;20878;-60
2023/03/23 13:40:31;;;;;;;4.88;2.22;;;;;;;14.96;62.45;95993.44;2062888;28;20221;-60
2023/03/23 13:41:31;;;;;;;3.30;1.48;;;;;;;14.90;62.80;95996.50;2062637;28;20690;-60
2023/03/23 13:42:35;;;;;;;3.13;1.77;;;;;;;14.84;62.40;95984.66;2056912;28;20676;-60
2023/03/23 13:43:37;;;;;;;8.20;2.00;;;;;;;14.87;62.93;95991.47;2054586;28;20718;-61
2023/03/23 13:44:43;;;;;;;2.95;1.67;;;;;;;14.76;63.04;96001.94;2054375;28;20216;-61
2023/03/23 13:45:47;;;;;;;3.72;1.60;;;;;;;14.69;63.53;95996.28;2061060;28;20195;-61
2023/03/23 13:47:15;;;;;;;3.25;1.77;;;;;;;14.68;64.00;95991.97;2060985;28;20230;-61
2023/03/23 13:48:15;;;;;;;4.25;2.10;;;;;;;14.78;63.25;95994.75;2054224;28;20654;-61
2023/03/23 13:49:20;;;;;;;3.93;2.10;;;;;;;14.64;63.28;95991.34;2046398;28;20667;-60
2023/03/23 13:50:20;;;;;;;4.05;2.03;;;;;;;14.70;63.59;95990.03;2055653;28;20283;-61
2023/03/23 13:51:42;;;;;;;4.00;1.90;;;;;;;14.71;63.62;95991.72;2063318;28;20212;-61
2023/03/23 13:52:45;;;;;;;4.93;1.70;;;;;;;14.74;63.86;95990.66;2058496;28;20381;-61
2023/03/23 13:53:47;;;;;;;3.83;1.80;;;;;;;14.74;63.98;95990.66;2062404;28;20196;-61
2023/03/23 13:54:48;;;;;;;5.70;2.20;;;;;;;14.81;63.44;95981.41;2064333;28;20226;-61
2023/03/23 13:55:51;;;;;;;3.20;1.85;;;;;;;14.79;63.08;95999.91;2061228;28;20642;-61
2023/03/23 13:56:58;;;;;;;7.50;1.70;;;;;;;14.76;62.88;95986.97;2062592;28;20913;-61
2023/03/23 13:58:01;;;;;;;4.65;2.00;;;;;;;14.82;63.20;95977.84;2063964;28;20231;-61
2023/03/23 13:59:15;;;;;;;3.05;1.73;;;;;;;14.81;63.08;95968.25;2062771;28;20187;-61
2023/03/23 14:00:31;;;;;;;3.90;1.70;;;;;;;14.84;63.10;95975.91;2063731;28;20278;-61
2023/03/23 14:01:35;;;;;;;3.85;1.55;;;;;;;14.78;62.73;95961.44;2063340;28;20215;-61
2023/03/23 14:02:39;;;;;;;2.40;1.50;;;;;;;14.77;63.21;95970.28;2064336;28;20229;-61
2023/03/23 14:03:42;;;;;;;2.60;1.55;;;;;;;14.77;63.01;95967.66;2063840;28;20677;-61
2023/03/23 14:04:50;;;;;;;3.95;1.90;;;;;;;14.81;63.00;95971.72;2063316;28;20218;-61
2023/03/23 14:06:02;;;;;;;2.70;1.70;;;;;;;14.79;63.47;95957.88;2062646;28;20210;-61
2023/03/23 14:07:11;;;;;;;5.82;1.73;;;;;;;14.84;63.36;95965.41;2064507;28;20689;-61
2023/03/23 14:08:20;;;;;;;3.70;2.00;;;;;;;14.72;63.59;95964.50;2065222;28;20235;-61
2023/03/23 14:09:31;;;;;;;3.10;1.85;;;;;;;14.64;63.33;95949.31;2063273;28;20210;-60
2023/03/23 14:10:35;;;;;;;3.92;1.77;;;;;;;14.63;63.30;95957.28;2063606;28;20197;-61
2023/03/23 14:11:48;;;;;;;3.88;2.05;;;;;;;14.67;63.27;95953.50;2061314;28;21050;-60
2023/03/23 14:12:52;;;;;;;4.80;1.52;;;;;;;14.74;63.45;95953.88;2063100;28;20196;-61
2023/03/23 14:14:01;;;;;;;4.05;1.95;;;;;;;14.70;63.44;95950.63;2060706;28;20239;-60
2023/03/23 14:15:05;;;;;;;4.07;1.80;;;;;;;14.79;63.44;95959.63;2064820;28;20223;-61
2023/03/23 14:16:22;;;;;;;2.90;1.52;;;;;;;14.74;63.28;95944.22;2065394;28;20631;-61
2023/03/23 14:17:25;;;;;;;3.80;1.90;;;;;;;14.80;62.86;95948.19;2057434;28;20440;-61
2023/03/23 14:18:41;;;;;;;2.33;1.60;;;;;;;14.76;63.15;95941.47;2063115;28;20195;-61
2023/03/23 14:19:46;;;;;;;4.45;1.58;;;;;;;14.92;63.54;95938.56;2066520;28;20221;-60
2023/03/23 14:20:47;;;;;;;4.40;2.20;;;;;;;15.09;63.17;95939.97;2064107;28;20272;-61
2023/03/23 14:21:56;;;;;;;2.67;1.50;;;;;;;15.05;62.81;95930.63;2060789;28;20196;-61
2023/03/23 14:22:56;;;;;;;5.95;2.05;;;;;;;14.94;62.96;95940.13;2061058;28;20202;-61
2023/03/23 14:24:00;;;;;;;4.50;2.00;;;;;;;14.90;62.88;95930.78;2062679;28;20227;-60
2023/03/23 14:25:10;;;;;;;3.83;1.98;;;;;;;14.82;62.80;95923.47;2060579;28;20622;-60
2023/03/23 14:26:20;;;;;;;2.50;1.40;;;;;;;14.86;63.24;95932.78;2065208;28;20749;-61
2023/03/23 14:27:22;;;;;;;3.25;1.60;;;;;;;15.00;63.23;95930.97;2063899;28;20214;-60
2023/03/23 14:28:23;;;;;;;4.18;1.70;;;;;;;15.05;63.34;95928.00;2062995;28;20207;-61
2023/03/23 14:29:23;;;;;;;6.53;2.30;;;;;;;15.05;63.05;95928.00;2064968;28;20195;-61
2023/03/23 14:30:27;;;;;;;4.43;1.97;;;;;;;15.03;63.09;95930.72;2062089;28;20294;-61
2023/03/23 14:31:28;;;;;;;2.30;1.38;;;;;;;15.13;63.15;95929.09;2054718;28;20199;-61
2023/03/23 14:32:32;;;;;;;3.93;1.77;;;;;;;15.21;63.30;95922.41;2059462;28;20238;-61
2023/03/23 14:33:32;;;;;;;4.25;1.90;;;;;;;15.21;62.88;95930.31;2063235;28;20491;-61
2023/03/23 14:34:34;;;;;;;5.73;1.73;;;;;;;15.22;62.81;95927.56;2058349;28;20255;-61
2023/03/23 14:35:37;;;;;;;4.93;2.10;;;;;;;15.19;62.46;95926.00;2060621;28;20559;-61
2023/03/23 14:36:39;;;;;;;4.28;2.03;;;;;;;15.27;62.64;95938.56;2060973;28;20246;-61
2023/03/23 14:37:40;;;;;;;5.10;1.67;;;;;;;15.29;62.52;95933.22;2064346;28;20245;-61
2023/03/23 14:38:40;;;;;;;3.10;1.73;;;;;;;15.34;62.78;95941.59;2062248;28;20270;-61
2023/03/23 14:39:45;;;;;;;14.50;1.80;;;;;;;15.38;62.95;95937.78;2061455;28;20807;-61
2023/03/23 14:40:47;;;;;;;3.05;1.92;;;;;;;15.28;62.52;95936.78;2066132;28;20207;-61